Time;durP1;ratioP1;P1;durP2;ratioP2;P2;SDS_P1;SDS_P2;PMS_P1;PMS_P2;Temp;Humidity;BMP_temperature;BMP_pressure;BME280_temperature;BME280_humidity;BME280_pressure;Samples;Min_cycle;Max_cycle;Signal;HPM_P1;HPM_P2
2021/12/27 00:05:08;;;;;;;13.15;7.47;;;;;;;-1.73;86.84;100513.44;10416981;28;20050;-64
2021/12/27 00:10:30;;;;;;;15.13;8.35;;;;;;;-1.71;86.29;100495.50;10329390;28;20534;-64
2021/12/27 00:15:52;;;;;;;15.77;7.50;;;;;;;-1.65;86.49;100488.56;10355402;28;20052;-64
2021/12/27 00:21:13;;;;;;;15.73;7.32;;;;;;;-1.65;86.82;100486.00;10355642;28;20046;-66
2021/12/27 00:26:35;;;;;;;12.52;7.43;;;;;;;-1.63;87.26;100474.03;10367562;28;20037;-65
2021/12/27 00:31:57;;;;;;;16.20;7.55;;;;;;;-1.63;85.99;100463.00;10433076;28;20055;-64
2021/12/27 00:37:18;;;;;;;12.70;7.05;;;;;;;-1.64;85.39;100456.22;10426249;28;20061;-64
2021/12/27 00:42:40;;;;;;;15.63;7.63;;;;;;;-1.63;86.25;100442.56;10382578;28;20055;-66
2021/12/27 00:48:02;;;;;;;13.20;7.53;;;;;;;-1.60;87.17;100438.22;10395183;28;20144;-64
2021/12/27 00:53:24;;;;;;;14.27;7.35;;;;;;;-1.66;85.10;100427.31;10416607;28;20041;-64
2021/12/27 00:58:46;;;;;;;17.88;6.97;;;;;;;-1.67;87.04;100425.63;10366788;28;20050;-64
2021/12/27 01:04:08;;;;;;;12.35;6.82;;;;;;;-1.71;86.55;100414.63;10391453;28;20050;-64
2021/12/27 01:20:30;;;;;;;14.68;7.22;;;;;;;-1.64;85.51;100415.34;10367014;28;20053;-65
2021/12/27 01:25:52;;;;;;;13.60;7.55;;;;;;;-1.58;85.08;100415.19;10415842;28;20048;-64
2021/12/27 01:31:17;;;;;;;11.82;6.95;;;;;;;-1.58;85.97;100410.06;10382235;28;20069;-65
2021/12/27 01:36:39;;;;;;;15.70;7.37;;;;;;;-1.50;84.86;100403.09;10348297;28;20488;-64
2021/12/27 01:42:01;;;;;;;12.57;7.30;;;;;;;-1.50;84.68;100408.22;10400616;28;20049;-65
2021/12/27 01:47:22;;;;;;;13.45;7.15;;;;;;;-1.44;85.47;100415.72;10414783;28;20064;-66
2021/12/27 01:52:46;;;;;;;13.98;7.07;;;;;;;-1.47;85.73;100410.69;10347218;28;20057;-64
2021/12/27 01:58:09;;;;;;;15.20;7.45;;;;;;;-1.44;84.99;100408.03;10390827;28;20084;-65
2021/12/27 02:03:32;;;;;;;10.82;6.50;;;;;;;-1.41;85.98;100407.97;10346805;28;20056;-65
2021/12/27 02:08:58;;;;;;;15.70;7.85;;;;;;;-1.41;84.96;100413.09;10360134;28;20137;-64
2021/12/27 02:14:20;;;;;;;21.48;7.30;;;;;;;-1.38;84.50;100410.47;10366051;28;20053;-64
2021/12/27 02:19:45;;;;;;;14.40;7.68;;;;;;;-1.33;84.52;100406.09;10359468;28;20770;-64
2021/12/27 02:25:08;;;;;;;15.43;7.80;;;;;;;-1.31;85.22;100401.81;10389059;28;20117;-64
2021/12/27 02:30:30;;;;;;;17.13;8.13;;;;;;;-1.26;84.79;100392.28;10382856;28;20046;-65
2021/12/27 02:35:56;;;;;;;14.63;7.45;;;;;;;-1.32;84.45;100402.69;10363210;28;20056;-65
2021/12/27 02:41:18;;;;;;;14.82;7.90;;;;;;;-1.33;85.56;100390.78;10411643;28;20060;-64
2021/12/27 02:46:42;;;;;;;13.57;7.97;;;;;;;-1.31;86.34;100381.34;10402697;28;20042;-65
2021/12/27 02:52:04;;;;;;;15.40;7.70;;;;;;;-1.26;86.66;100371.84;10378537;28;20053;-64
2021/12/27 02:57:26;;;;;;;17.40;8.10;;;;;;;-1.33;84.80;100366.03;10386905;28;20049;-64
2021/12/27 03:02:49;;;;;;;13.52;7.93;;;;;;;-1.28;84.60;100363.38;10358699;28;20057;-64
2021/12/27 03:08:14;;;;;;;16.08;7.82;;;;;;;-1.32;85.47;100361.78;10357632;28;20506;-65
2021/12/27 03:13:39;;;;;;;15.55;8.30;;;;;;;-1.25;85.58;100353.94;10394655;28;20075;-64
2021/12/27 03:19:00;;;;;;;14.50;7.78;;;;;;;-1.31;84.34;100353.25;10400125;28;20057;-64
2021/12/27 03:24:22;;;;;;;17.08;7.63;;;;;;;-1.30;85.83;100348.06;10401772;28;20046;-64
2021/12/27 03:29:45;;;;;;;15.18;7.85;;;;;;;-1.23;85.79;100347.03;10418089;28;20056;-64
2021/12/27 03:35:12;;;;;;;18.75;8.38;;;;;;;-1.33;86.49;100340.47;10382550;28;20351;-64
2021/12/27 03:40:36;;;;;;;17.08;7.70;;;;;;;-1.31;87.03;100337.91;10407959;28;20519;-64
2021/12/27 03:45:58;;;;;;;16.70;7.75;;;;;;;-1.29;87.13;100343.78;10368847;28;20049;-65
2021/12/27 03:51:20;;;;;;;15.52;8.07;;;;;;;-1.26;87.42;100346.28;10378618;28;20049;-64
2021/12/27 03:56:41;;;;;;;15.85;7.25;;;;;;;-1.28;85.36;100348.03;10409135;28;20046;-67
2021/12/27 04:02:04;;;;;;;17.90;7.93;;;;;;;-1.30;86.11;100329.34;10371940;28;20053;-64
2021/12/27 04:07:28;;;;;;;14.18;7.60;;;;;;;-1.30;87.01;100307.19;10396137;28;20148;-64
2021/12/27 04:12:49;;;;;;;13.65;7.57;;;;;;;-1.31;87.49;100297.00;10381962;28;20053;-65
2021/12/27 04:18:11;;;;;;;19.80;8.38;;;;;;;-1.28;89.00;100276.47;10362827;28;20164;-64
2021/12/27 04:23:33;;;;;;;15.40;7.53;;;;;;;-1.37;88.52;100266.50;10360675;28;20037;-64
2021/12/27 04:28:54;;;;;;;18.40;8.55;;;;;;;-1.40;89.00;100262.31;10396333;28;20053;-63
2021/12/27 04:34:16;;;;;;;16.00;7.95;;;;;;;-1.42;88.79;100253.84;10376877;28;20064;-64
2021/12/27 04:39:39;;;;;;;19.67;8.10;;;;;;;-1.44;88.70;100264.97;10395634;28;20523;-64
2021/12/27 04:45:03;;;;;;;19.77;8.98;;;;;;;-1.39;88.47;100270.78;10371283;28;20049;-64
2021/12/27 04:50:25;;;;;;;18.35;8.55;;;;;;;-1.39;89.55;100273.34;10402185;28;20567;-64
2021/12/27 04:55:47;;;;;;;16.13;8.65;;;;;;;-1.45;88.21;100263.28;10359892;28;20137;-64
2021/12/27 05:01:08;;;;;;;16.13;8.68;;;;;;;-1.48;89.27;100260.81;10363392;28;20064;-64
2021/12/27 05:06:30;;;;;;;17.30;8.88;;;;;;;-1.44;89.12;100263.25;10362041;28;20097;-64
2021/12/27 05:11:52;;;;;;;18.00;8.85;;;;;;;-1.44;89.44;100262.41;10362844;28;20525;-64
2021/12/27 05:17:15;;;;;;;15.77;8.68;;;;;;;-1.52;89.12;100262.59;10362201;28;20054;-64
2021/12/27 05:22:37;;;;;;;17.90;8.95;;;;;;;-1.49;89.76;100256.59;10362482;28;20049;-64
2021/12/27 05:28:02;;;;;;;20.17;9.18;;;;;;;-1.55;89.37;100272.06;10362025;28;20060;-64
2021/12/27 05:33:24;;;;;;;19.35;8.48;;;;;;;-1.44;88.95;100270.06;10364568;28;20056;-65
2021/12/27 05:38:45;;;;;;;16.38;8.70;;;;;;;-1.35;89.76;100254.53;10402092;28;20634;-63
2021/12/27 05:44:07;;;;;;;16.98;8.32;;;;;;;-1.34;88.74;100248.53;10363980;28;20395;-64
2021/12/27 05:49:29;;;;;;;15.52;8.77;;;;;;;-1.35;88.22;100254.53;10382894;28;20056;-64
2021/12/27 05:54:50;;;;;;;20.90;8.88;;;;;;;-1.31;89.07;100241.63;10359819;28;20050;-65
2021/12/27 06:00:13;;;;;;;18.27;8.70;;;;;;;-1.25;89.37;100223.56;10360973;28;20688;-64
2021/12/27 06:05:34;;;;;;;19.60;9.32;;;;;;;-1.18;88.79;100222.50;10346287;28;20053;-64
2021/12/27 06:10:56;;;;;;;17.42;9.15;;;;;;;-1.25;88.75;100215.06;10352607;28;20053;-64
2021/12/27 06:16:18;;;;;;;18.38;9.13;;;;;;;-1.24;88.90;100206.50;10359951;28;20046;-65
2021/12/27 06:21:39;;;;;;;17.35;9.30;;;;;;;-1.28;88.12;100213.44;10359695;28;20061;-64
2021/12/27 06:27:01;;;;;;;22.02;9.07;;;;;;;-1.18;87.73;100226.81;10399236;28;20228;-64
2021/12/27 06:32:23;;;;;;;17.90;9.38;;;;;;;-1.21;88.43;100221.75;10394669;28;20054;-64
2021/12/27 06:37:46;;;;;;;16.92;9.13;;;;;;;-1.12;88.99;100221.50;10399406;28;20060;-64
2021/12/27 06:43:07;;;;;;;16.48;9.15;;;;;;;-1.24;87.60;100216.72;10376656;28;20046;-64
2021/12/27 06:48:29;;;;;;;18.38;8.95;;;;;;;-1.14;87.99;100215.59;10392438;28;20060;-64
2021/12/27 06:53:51;;;;;;;20.77;10.40;;;;;;;-1.17;88.59;100213.16;10412084;28;20046;-65
2021/12/27 06:59:13;;;;;;;20.77;10.00;;;;;;;-1.17;88.61;100213.97;10345021;28;20054;-65
2021/12/27 07:04:35;;;;;;;15.98;8.90;;;;;;;-1.11;88.76;100218.94;10330345;28;20053;-64
2021/12/27 07:09:57;;;;;;;19.52;9.90;;;;;;;-1.17;87.65;100218.25;10344609;28;20069;-65
2021/12/27 07:15:18;;;;;;;20.13;9.82;;;;;;;-1.12;88.01;100211.28;10344062;28;20046;-64
2021/12/27 07:20:40;;;;;;;21.00;10.07;;;;;;;-1.11;87.92;100207.84;10345584;28;20057;-64
2021/12/27 07:26:02;;;;;;;18.88;10.52;;;;;;;-1.13;88.62;100195.13;10382465;28;20049;-64
2021/12/27 07:31:24;;;;;;;20.13;9.65;;;;;;;-1.07;89.12;100199.22;10411154;28;20045;-65
2021/12/27 07:36:48;;;;;;;18.60;10.13;;;;;;;-1.02;89.03;100202.50;10398108;28;20410;-64
2021/12/27 07:42:10;;;;;;;20.92;9.95;;;;;;;-1.02;89.07;100202.50;10400520;28;20140;-65
2021/12/27 07:47:32;;;;;;;18.80;10.23;;;;;;;-1.00;89.24;100205.81;10411532;28;20137;-64
2021/12/27 07:52:55;;;;;;;20.63;9.60;;;;;;;-0.97;89.74;100202.31;10411248;28;20060;-64
2021/12/27 07:58:17;;;;;;;23.95;10.20;;;;;;;-0.92;89.17;100209.84;10356270;28;20061;-65
2021/12/27 08:03:38;;;;;;;19.25;10.70;;;;;;;-0.92;89.40;100190.22;10341772;28;20054;-64
2021/12/27 08:09:00;;;;;;;24.67;10.18;;;;;;;-0.82;89.48;100191.63;10342520;28;20060;-65
2021/12/27 08:14:22;;;;;;;18.15;10.00;;;;;;;-0.82;89.31;100186.50;10354859;28;20058;-65
2021/12/27 08:19:45;;;;;;;20.80;10.93;;;;;;;-0.77;90.46;100192.34;10355052;28;20060;-65
2021/12/27 08:25:08;;;;;;;27.73;12.38;;;;;;;-0.67;90.84;100196.31;10370608;28;20050;-65
2021/12/27 08:30:31;;;;;;;30.33;10.50;;;;;;;-0.64;91.23;100197.91;10396446;28;20062;-66
2021/12/27 08:35:52;;;;;;;21.73;11.18;;;;;;;-0.55;91.74;100193.38;10341762;28;20520;-65
2021/12/27 08:41:15;;;;;;;21.35;11.82;;;;;;;-0.51;92.08;100187.28;10372018;28;20053;-65
2021/12/27 08:46:37;;;;;;;22.38;11.68;;;;;;;-0.47;91.71;100173.53;10440167;28;20065;-64
2021/12/27 08:51:59;;;;;;;23.33;12.63;;;;;;;-0.48;92.20;100184.63;10376482;28;20057;-65
2021/12/27 08:57:20;;;;;;;21.63;11.80;;;;;;;-0.46;92.08;100185.44;10347762;28;20053;-66
2021/12/27 09:02:43;;;;;;;24.52;12.30;;;;;;;-0.38;93.48;100183.47;10384006;28;20148;-65
2021/12/27 09:08:06;;;;;;;22.05;12.27;;;;;;;-0.37;93.74;100187.69;10366137;28;20049;-66
2021/12/27 09:13:29;;;;;;;25.90;13.23;;;;;;;-0.25;93.54;100181.38;10328709;28;20046;-67
2021/12/27 09:18:51;;;;;;;25.00;12.68;;;;;;;-0.15;93.79;100181.03;10355124;28;20065;-66
2021/12/27 09:24:13;;;;;;;21.58;12.60;;;;;;;-0.07;94.40;100186.75;10364949;28;20060;-67
2021/12/27 09:29:35;;;;;;;24.60;12.65;;;;;;;-0.11;94.24;100177.47;10345291;28;20099;-66
2021/12/27 09:34:57;;;;;;;24.88;14.00;;;;;;;-0.01;94.66;100173.75;10403222;28;20046;-65
2021/12/27 09:40:19;;;;;;;26.30;14.23;;;;;;;0.13;94.64;100154.47;10370219;28;20385;-66
2021/12/27 09:45:41;;;;;;;28.02;14.07;;;;;;;0.13;93.93;100156.19;10387360;28;20052;-66
2021/12/27 09:51:03;;;;;;;26.30;12.93;;;;;;;0.20;94.38;100152.53;10402413;28;20413;-67
2021/12/27 09:56:24;;;;;;;23.92;13.05;;;;;;;0.28;94.74;100160.81;10395209;28;20053;-66
2021/12/27 10:01:47;;;;;;;24.98;13.85;;;;;;;0.30;94.08;100164.13;10401604;28;20053;-67
2021/12/27 10:07:08;;;;;;;28.45;14.48;;;;;;;0.40;94.40;100155.25;10359629;28;20399;-66
2021/12/27 10:12:30;;;;;;;26.50;15.20;;;;;;;0.35;94.53;100146.88;10346692;28;20513;-67
2021/12/27 10:17:52;;;;;;;27.30;14.32;;;;;;;0.32;95.46;100141.84;10359562;28;20046;-68
2021/12/27 10:23:18;;;;;;;24.65;14.48;;;;;;;0.36;95.75;100139.16;10362431;28;20395;-67
2021/12/27 10:28:40;;;;;;;26.30;15.00;;;;;;;0.32;95.43;100141.84;10399149;28;20053;-68
2021/12/27 10:34:03;;;;;;;25.70;14.55;;;;;;;0.45;95.79;100112.34;10413765;28;20390;-67
2021/12/27 10:39:30;;;;;;;27.35;15.30;;;;;;;0.38;96.21;100109.16;10389345;28;20050;-68
2021/12/27 10:44:55;;;;;;;29.80;16.05;;;;;;;0.54;96.23;100112.03;10399356;28;20041;-68
2021/12/27 10:50:23;;;;;;;27.55;14.57;;;;;;;0.66;96.44;100111.59;10386716;28;20056;-67
2021/12/27 10:55:48;;;;;;;30.33;16.83;;;;;;;0.66;95.76;100111.59;10404237;28;20050;-67
2021/12/27 11:01:18;;;;;;;28.98;15.25;;;;;;;0.67;96.07;100103.00;10358774;28;20058;-67
2021/12/27 11:06:40;;;;;;;29.80;15.30;;;;;;;0.62;95.40;100107.47;10357648;28;20499;-67
2021/12/27 11:12:02;;;;;;;30.15;15.93;;;;;;;0.65;96.36;100104.78;10331924;28;20053;-67
2021/12/27 11:17:24;;;;;;;27.05;15.25;;;;;;;0.72;96.44;100111.38;10359100;28;20050;-67
2021/12/27 11:22:46;;;;;;;29.35;15.18;;;;;;;0.74;96.54;100099.31;10347462;28;20058;-67
2021/12/27 11:28:26;;;;;;;27.60;14.55;;;;;;;0.88;96.84;100095.38;10359627;28;20056;-67
2021/12/27 11:34:01;;;;;;;30.83;15.80;;;;;;;0.79;96.74;100094.88;10378158;28;20133;-68
2021/12/27 11:39:32;;;;;;;32.80;15.75;;;;;;;0.97;96.43;100077.06;10358023;28;20049;-67
2021/12/27 11:44:56;;;;;;;30.50;15.38;;;;;;;1.00;97.15;100072.66;10410366;28;20072;-68
2021/12/27 11:50:18;;;;;;;33.90;16.40;;;;;;;1.00;96.59;100072.66;10396839;28;20515;-68
2021/12/27 11:55:39;;;;;;;31.35;14.82;;;;;;;1.02;96.93;100055.44;10366926;28;20049;-68
2021/12/27 12:01:04;;;;;;;28.95;15.18;;;;;;;1.08;96.04;100044.97;10355852;28;20057;-68
2021/12/27 12:06:39;;;;;;;31.23;15.70;;;;;;;1.07;96.68;100053.56;10354954;28;20064;-68
2021/12/27 12:12:05;;;;;;;29.92;15.02;;;;;;;1.04;96.33;100043.41;10355783;28;20053;-68
2021/12/27 12:17:56;;;;;;;26.38;15.77;;;;;;;1.17;96.04;100038.66;10354934;28;20054;-67
2021/12/27 12:23:18;;;;;;;33.13;16.02;;;;;;;1.12;96.08;100049.09;10370935;28;20045;-68
2021/12/27 12:28:39;;;;;;;28.65;15.45;;;;;;;1.17;96.51;100043.78;10408415;28;20406;-68
2021/12/27 12:34:27;;;;;;;32.97;16.70;;;;;;;1.22;96.32;100041.88;10396631;28;20051;-68
2021/12/27 12:39:52;;;;;;;30.52;15.93;;;;;;;1.14;96.84;100049.88;10374920;28;20054;-68
2021/12/27 12:45:13;;;;;;;31.13;15.73;;;;;;;1.21;96.89;100035.88;10404711;28;20046;-68
2021/12/27 12:50:35;;;;;;;32.72;16.58;;;;;;;1.20;97.75;100041.91;10337279;28;20058;-68
2021/12/27 12:56:03;;;;;;;36.38;16.08;;;;;;;1.19;97.66;100032.53;10343783;28;20471;-68
2021/12/27 13:01:25;;;;;;;30.65;15.50;;;;;;;1.17;98.13;100034.34;10354529;28;20434;-68
2021/12/27 13:06:47;;;;;;;36.40;17.80;;;;;;;1.22;98.41;100022.16;10350836;28;20051;-68
2021/12/27 13:12:11;;;;;;;35.38;16.27;;;;;;;1.26;98.42;100013.47;10370491;28;20148;-68
2021/12/27 13:17:37;;;;;;;32.67;16.02;;;;;;;1.30;98.73;100015.00;10349593;28;20148;-68
2021/12/27 13:22:59;;;;;;;34.78;16.95;;;;;;;1.17;99.12;100024.06;10365447;28;20053;-68
2021/12/27 13:28:44;;;;;;;31.27;16.48;;;;;;;1.16;99.47;100027.56;10401103;28;20064;-68
2021/12/27 13:34:09;;;;;;;31.88;16.85;;;;;;;1.18;100.00;100025.75;10416042;28;20046;-68
2021/12/27 13:39:32;;;;;;;35.53;17.70;;;;;;;1.22;100.00;100006.78;10368618;28;20053;-68
2021/12/27 13:45:06;;;;;;;31.33;16.85;;;;;;;1.29;100.00;100003.06;10401711;28;20046;-68
2021/12/27 13:50:29;;;;;;;36.03;17.03;;;;;;;1.25;99.92;99993.81;10423712;28;20116;-68
2021/12/27 13:56:07;;;;;;;30.92;16.95;;;;;;;1.32;99.65;99967.00;10403979;28;20053;-68
2021/12/27 14:01:29;;;;;;;28.45;15.40;;;;;;;1.21;100.00;99974.31;10361301;28;20058;-68
2021/12/27 14:06:52;;;;;;;30.67;16.70;;;;;;;1.16;100.00;99971.09;10346695;28;20052;-68
2021/12/27 14:12:23;;;;;;;25.00;15.55;;;;;;;1.20;100.00;99954.66;10360447;28;20060;-68
2021/12/27 14:17:45;;;;;;;29.50;15.73;;;;;;;1.21;100.00;99956.34;10348306;28;20049;-69
2021/12/27 14:23:12;;;;;;;35.80;16.98;;;;;;;1.26;99.92;99962.13;10361407;28;20052;-68
2021/12/27 14:28:33;;;;;;;28.77;15.95;;;;;;;1.24;100.00;99961.34;10399684;28;20128;-69
2021/12/27 14:33:55;;;;;;;30.38;15.88;;;;;;;1.27;99.81;99953.53;10378891;28;20064;-68
2021/12/27 14:39:16;;;;;;;33.78;16.85;;;;;;;1.27;100.00;99944.97;10359356;28;20101;-68
2021/12/27 14:44:54;;;;;;;32.17;16.25;;;;;;;1.26;99.92;99949.28;10362024;28;20070;-68
2021/12/27 14:50:18;;;;;;;33.30;16.38;;;;;;;1.27;100.00;99956.09;10393982;28;20100;-68
2021/12/27 14:55:41;;;;;;;29.35;14.60;;;;;;;1.26;100.00;99951.00;10411005;28;20056;-68
2021/12/27 15:01:06;;;;;;;34.92;17.83;;;;;;;1.41;100.00;99966.63;10345409;28;20050;-68
2021/12/27 15:06:28;;;;;;;29.90;17.42;;;;;;;1.35;100.00;99971.19;10357926;28;20109;-68
2021/12/27 15:11:50;;;;;;;29.60;16.70;;;;;;;1.30;100.00;99958.53;10357833;28;20064;-68
2021/12/27 15:17:12;;;;;;;25.88;16.15;;;;;;;1.38;100.00;99959.06;10362128;28;20053;-68
2021/12/27 15:22:33;;;;;;;29.45;16.40;;;;;;;1.23;100.00;99962.25;10357372;28;20069;-68
2021/12/27 15:27:55;;;;;;;25.33;15.35;;;;;;;1.26;100.00;99954.44;10355776;28;20046;-68
2021/12/27 15:33:17;;;;;;;28.10;15.80;;;;;;;1.29;100.00;99954.31;10343763;28;20064;-68
2021/12/27 15:38:39;;;;;;;27.13;15.90;;;;;;;1.34;100.00;99969.50;10357315;28;20046;-68
2021/12/27 15:44:01;;;;;;;32.80;17.33;;;;;;;1.36;100.00;99973.69;10387533;28;20536;-68
2021/12/27 15:49:23;;;;;;;28.35;16.15;;;;;;;1.38;100.00;99963.38;10409193;28;20480;-68
2021/12/27 15:54:44;;;;;;;32.08;16.05;;;;;;;1.33;100.00;99968.66;10343043;28;20521;-69
2021/12/27 16:00:11;;;;;;;31.42;16.50;;;;;;;1.38;100.00;99956.47;10337627;28;20053;-68
2021/12/27 16:05:33;;;;;;;30.92;16.45;;;;;;;1.38;100.00;99961.63;10343989;28;20521;-68
2021/12/27 16:10:59;;;;;;;28.05;15.65;;;;;;;1.41;100.00;99964.06;10340143;28;20525;-69
2021/12/27 16:16:26;;;;;;;28.58;16.02;;;;;;;1.37;100.00;99959.94;10345147;28;20060;-69
2021/12/27 16:21:48;;;;;;;27.95;16.05;;;;;;;1.40;100.00;99954.69;10349603;28;20046;-68
2021/12/27 16:27:12;;;;;;;29.08;16.48;;;;;;;1.43;100.00;99952.00;10391991;28;20053;-68
2021/12/27 16:32:34;;;;;;;24.23;14.18;;;;;;;1.28;100.00;99944.09;10402440;28;20061;-68
2021/12/27 16:37:55;;;;;;;30.58;15.60;;;;;;;1.25;100.00;99950.19;10393617;28;20049;-68
2021/12/27 16:43:19;;;;;;;30.30;15.55;;;;;;;1.31;100.00;99944.78;10387222;28;20153;-67
2021/12/27 16:48:48;;;;;;;27.60;15.20;;;;;;;1.34;100.00;99944.66;10394064;28;20079;-68
2021/12/27 16:54:10;;;;;;;29.27;15.55;;;;;;;1.34;100.00;99934.41;10369952;28;20052;-68
2021/12/27 16:59:32;;;;;;;33.88;16.60;;;;;;;1.40;100.00;99939.28;10359658;28;20053;-68
2021/12/27 17:04:54;;;;;;;28.88;15.18;;;;;;;1.45;100.00;99932.25;10387813;28;20057;-68
2021/12/27 17:10:15;;;;;;;31.48;16.98;;;;;;;1.53;100.00;99934.47;10395578;28;20131;-67
2021/12/27 17:15:39;;;;;;;28.80;16.25;;;;;;;1.47;100.00;99934.72;10386484;28;20568;-68
2021/12/27 17:21:00;;;;;;;30.10;15.90;;;;;;;1.52;100.00;99918.22;10396027;28;20061;-67
2021/12/27 17:26:23;;;;;;;29.83;16.17;;;;;;;1.54;100.00;99911.28;10374720;28;20557;-67
2021/12/27 17:31:44;;;;;;;26.83;15.02;;;;;;;1.62;100.00;99904.09;10385524;28;20072;-67
2021/12/27 17:37:06;;;;;;;27.45;15.23;;;;;;;1.58;100.00;99901.72;10376565;28;20056;-67
2021/12/27 17:42:28;;;;;;;25.15;15.63;;;;;;;1.64;100.00;99907.41;10381068;28;20512;-67
2021/12/27 17:47:51;;;;;;;29.52;16.90;;;;;;;1.66;100.00;99908.19;10382818;28;20494;-67
2021/12/27 17:53:13;;;;;;;29.20;16.75;;;;;;;1.62;100.00;99908.41;10408615;28;20540;-67
2021/12/27 17:58:34;;;;;;;29.65;16.70;;;;;;;1.61;100.00;99902.41;10395884;28;20068;-67
2021/12/27 18:04:01;;;;;;;30.55;16.35;;;;;;;1.50;100.00;99899.47;10327460;28;20058;-67
2021/12/27 18:09:24;;;;;;;29.23;16.73;;;;;;;1.58;100.00;99897.44;10354174;28;20136;-67
2021/12/27 18:14:45;;;;;;;30.88;17.27;;;;;;;1.61;100.00;99876.72;10341523;28;20665;-66
2021/12/27 18:20:09;;;;;;;32.40;17.17;;;;;;;1.64;100.00;99897.16;10355914;28;20057;-67
2021/12/27 18:25:31;;;;;;;25.80;16.02;;;;;;;1.67;100.00;99884.19;10375466;28;20091;-67
2021/12/27 18:30:53;;;;;;;30.77;17.27;;;;;;;1.78;100.00;99876.84;10401695;28;20063;-67
2021/12/27 18:36:14;;;;;;;29.67;16.33;;;;;;;1.73;100.00;99865.94;10426814;28;20056;-67
2021/12/27 18:41:36;;;;;;;27.55;16.02;;;;;;;1.76;100.00;99860.66;10407781;28;20049;-67
2021/12/27 18:46:58;;;;;;;28.05;15.77;;;;;;;1.69;100.00;99861.00;10391887;28;20045;-67
2021/12/27 18:52:20;;;;;;;28.00;15.73;;;;;;;1.76;100.00;99863.22;10355294;28;20053;-67
2021/12/27 18:57:47;;;;;;;28.83;16.08;;;;;;;1.83;100.00;99856.06;10359767;28;20054;-67
2021/12/27 19:03:10;;;;;;;28.73;16.85;;;;;;;1.92;100.00;99859.06;10361453;28;20137;-68
2021/12/27 19:08:34;;;;;;;31.33;17.00;;;;;;;1.87;100.00;99858.47;10355261;28;20505;-68
2021/12/27 19:13:56;;;;;;;28.52;15.27;;;;;;;1.94;100.00;99840.13;10353349;28;20781;-67
2021/12/27 19:19:18;;;;;;;28.42;16.23;;;;;;;1.94;100.00;99839.28;10341618;28;20056;-68
2021/12/27 19:24:41;;;;;;;27.13;15.00;;;;;;;2.04;100.00;99835.38;10341255;28;20045;-67
2021/12/27 19:30:06;;;;;;;28.38;16.25;;;;;;;2.10;100.00;99835.09;10358856;28;20057;-67
2021/12/27 19:35:29;;;;;;;27.35;15.65;;;;;;;2.04;100.00;99840.50;10376891;28;20053;-68
2021/12/27 19:40:51;;;;;;;26.13;15.65;;;;;;;2.08;100.00;99831.78;10367884;28;20057;-67
2021/12/27 19:46:13;;;;;;;27.65;15.85;;;;;;;2.14;100.00;99824.59;10396787;28;20049;-68
2021/12/27 19:51:34;;;;;;;30.00;17.38;;;;;;;2.18;100.00;99823.56;10389905;28;20394;-67
2021/12/27 19:56:56;;;;;;;28.95;16.83;;;;;;;2.14;100.00;99821.22;10343091;28;20060;-67
2021/12/27 20:02:18;;;;;;;26.23;16.77;;;;;;;2.16;100.00;99814.28;10375751;28;20060;-67
2021/12/27 20:07:41;;;;;;;28.50;16.70;;;;;;;2.05;100.00;99816.50;10380893;28;20046;-68
2021/12/27 20:13:04;;;;;;;29.00;16.60;;;;;;;2.05;100.00;99816.50;10355486;28;20053;-67
2021/12/27 20:18:26;;;;;;;29.60;17.48;;;;;;;1.96;100.00;99814.34;10342883;28;20046;-68
2021/12/27 20:23:48;;;;;;;31.17;17.40;;;;;;;2.03;100.00;99814.00;10363079;28;20069;-68
2021/12/27 20:29:10;;;;;;;26.25;16.52;;;;;;;1.95;100.00;99804.97;10397958;28;20052;-67
2021/12/27 20:34:32;;;;;;;29.05;17.50;;;;;;;1.96;100.00;99811.78;10394649;28;20054;-67
2021/12/27 20:39:55;;;;;;;29.23;16.45;;;;;;;1.99;100.00;99801.38;10382447;28;20079;-67
2021/12/27 20:45:24;;;;;;;31.05;17.00;;;;;;;1.96;100.00;99799.75;10400909;28;20498;-67
2021/12/27 20:50:48;;;;;;;31.42;17.15;;;;;;;2.05;100.00;99795.94;10393006;28;20054;-67
2021/12/27 20:56:11;;;;;;;29.75;16.98;;;;;;;2.13;100.00;99788.72;10355175;28;20050;-67
2021/12/27 21:01:32;;;;;;;26.20;15.73;;;;;;;2.14;100.00;99796.34;10349177;28;20161;-68
2021/12/27 21:06:55;;;;;;;23.80;16.27;;;;;;;2.19;100.00;99790.97;10354633;28;20082;-69
2021/12/27 21:12:19;;;;;;;32.00;18.30;;;;;;;2.25;100.00;99793.28;10342196;28;20046;-69
2021/12/27 21:17:41;;;;;;;27.35;17.45;;;;;;;2.27;100.00;99791.47;10354726;28;20616;-70
2021/12/27 21:23:03;;;;;;;27.05;16.88;;;;;;;2.31;100.00;99782.72;10356301;28;20060;-68
2021/12/27 21:28:27;;;;;;;28.40;16.88;;;;;;;2.28;100.00;99772.56;10391792;28;20045;-69
2021/12/27 21:33:50;;;;;;;30.10;17.15;;;;;;;2.41;100.00;99765.91;10415686;28;20057;-69
2021/12/27 21:39:13;;;;;;;29.15;16.83;;;;;;;2.45;100.00;99757.16;10388745;28;20053;-68
2021/12/27 21:44:36;;;;;;;26.20;16.48;;;;;;;2.41;100.00;99750.50;10362665;28;20057;-68
2021/12/27 21:49:57;;;;;;;29.98;17.23;;;;;;;2.41;100.00;99751.31;10398736;28;20058;-68
2021/12/27 21:55:20;;;;;;;27.45;16.27;;;;;;;2.39;100.00;99749.72;10347437;28;20061;-68
2021/12/27 22:00:43;;;;;;;27.92;16.58;;;;;;;2.39;100.00;99744.59;10361122;28;20537;-68
2021/12/27 22:06:05;;;;;;;26.88;16.58;;;;;;;2.38;100.00;99737.78;10360427;28;20052;-68
2021/12/27 22:11:27;;;;;;;26.95;16.48;;;;;;;2.36;100.00;99730.16;10360888;28;20125;-69
2021/12/27 22:16:48;;;;;;;27.40;16.75;;;;;;;2.39;100.00;99731.72;10347048;28;20046;-68
2021/12/27 22:22:10;;;;;;;27.75;16.83;;;;;;;2.42;100.00;99723.88;10346895;28;20049;-68
2021/12/27 22:27:32;;;;;;;26.25;14.57;;;;;;;2.28;100.00;99721.16;10371588;28;20045;-68
2021/12/27 22:32:56;;;;;;;25.55;16.30;;;;;;;2.40;100.00;99717.97;10407058;28;20436;-68
2021/12/27 22:38:18;;;;;;;26.02;15.48;;;;;;;2.32;100.00;99712.38;10359323;28;20045;-69
2021/12/27 22:43:39;;;;;;;27.58;15.52;;;;;;;2.35;100.00;99717.34;10390112;28;20136;-68
2021/12/27 22:49:01;;;;;;;24.88;15.68;;;;;;;2.33;100.00;99706.34;10393184;28;20046;-69
2021/12/27 22:54:23;;;;;;;22.60;15.15;;;;;;;2.34;100.00;99700.25;10401992;28;20573;-68
2021/12/27 22:59:46;;;;;;;25.08;15.75;;;;;;;2.41;100.00;99704.22;10374938;28;20053;-68
2021/12/27 23:05:08;;;;;;;23.42;15.45;;;;;;;2.34;100.00;99695.13;10358425;28;20050;-68
2021/12/27 23:10:30;;;;;;;27.55;15.38;;;;;;;2.26;100.00;99684.41;10345365;28;20521;-69
2021/12/27 23:15:51;;;;;;;26.27;15.52;;;;;;;2.35;100.00;99683.94;10358557;28;20042;-67
2021/12/27 23:21:13;;;;;;;24.23;14.77;;;;;;;2.32;100.00;99686.69;10357518;28;20520;-67
2021/12/27 23:26:35;;;;;;;25.52;15.30;;;;;;;2.25;100.00;99675.03;10384325;28;20141;-68
2021/12/27 23:31:59;;;;;;;31.73;15.82;;;;;;;2.36;100.00;99667.59;10394059;28;20057;-68
2021/12/27 23:37:20;;;;;;;24.30;15.00;;;;;;;2.30;100.00;99663.59;10369580;28;20056;-67
2021/12/27 23:42:46;;;;;;;24.63;14.88;;;;;;;2.30;100.00;99657.66;10353701;28;20046;-68
2021/12/27 23:48:08;;;;;;;23.88;14.25;;;;;;;2.32;100.00;99656.66;10376496;28;20051;-68
2021/12/27 23:53:30;;;;;;;27.13;14.93;;;;;;;2.32;100.00;99645.56;10388503;28;20056;-68
2021/12/27 23:58:54;;;;;;;25.13;15.23;;;;;;;2.39;100.00;99641.75;10356740;28;20054;-68
